createdAt,value
2023-03-20T00:01:30.681Z,17.90
2023-03-20T00:03:58.345Z,16.73
2023-03-20T00:06:27.156Z,14.73
2023-03-20T00:08:55.198Z,17.40
2023-03-20T00:11:30.998Z,16.83
2023-03-20T00:14:01.503Z,15.93
2023-03-20T00:16:43.189Z,15.35
2023-03-20T00:19:26.020Z,16.13
2023-03-20T00:21:54.996Z,18.45
2023-03-20T00:24:22.964Z,19.48
2023-03-20T00:26:51.177Z,16.15
2023-03-20T00:29:36.751Z,14.00
2023-03-20T00:32:04.074Z,13.00
2023-03-20T00:34:32.205Z,18.15
2023-03-20T00:37:00.104Z,11.65
2023-03-20T00:39:29.805Z,18.52
2023-03-20T00:42:06.254Z,16.15
2023-03-20T00:44:36.925Z,14.30
2023-03-20T00:47:06.733Z,14.70
2023-03-20T00:49:38.660Z,18.20
2023-03-20T00:52:09.819Z,17.55
2023-03-20T00:57:14.495Z,14.38
2023-03-20T00:59:58.490Z,16.55
2023-03-20T01:02:28.969Z,18.48
2023-03-20T01:04:57.485Z,18.73
2023-03-20T01:07:27.648Z,13.35
2023-03-20T01:09:55.664Z,18.48
2023-03-20T01:12:23.889Z,18.75
2023-03-20T01:14:56.559Z,16.27
2023-03-20T01:17:25.294Z,17.58
2023-03-20T01:19:52.644Z,17.05
2023-03-20T01:22:20.025Z,16.48
2023-03-20T01:24:48.396Z,14.93
2023-03-20T01:27:18.568Z,18.75
2023-03-20T01:29:46.844Z,13.38
2023-03-20T01:32:17.925Z,14.65
2023-03-20T01:34:48.679Z,16.85
2023-03-20T01:37:23.286Z,14.63
2023-03-20T01:39:51.687Z,17.77
2023-03-20T01:42:19.347Z,15.52
2023-03-20T01:44:46.866Z,16.90
2023-03-20T01:47:21.125Z,19.20
2023-03-20T01:50:22.843Z,18.52
2023-03-20T01:53:07.679Z,14.35
2023-03-20T01:55:40.917Z,12.30
2023-03-20T01:58:15.341Z,13.93
2023-03-20T02:00:42.767Z,17.35
2023-03-20T02:03:14.241Z,13.82
2023-03-20T02:06:16.936Z,13.32
2023-03-20T02:08:59.134Z,13.25
2023-03-20T02:11:29.243Z,13.13
2023-03-20T02:13:58.935Z,16.80
2023-03-20T02:16:29.570Z,16.13
2023-03-20T02:19:11.359Z,13.63
2023-03-20T02:22:21.961Z,12.85
2023-03-20T02:25:15.928Z,17.10
2023-03-20T02:28:21.156Z,18.20
2023-03-20T02:31:14.734Z,12.93
2023-03-20T02:34:02.440Z,12.48
2023-03-20T02:36:54.226Z,16.77
2023-03-20T02:39:26.724Z,16.20
2023-03-20T02:42:00.191Z,15.55
2023-03-20T02:44:39.468Z,12.05
2023-03-20T02:47:14.720Z,14.18
2023-03-20T02:49:52.898Z,15.82
2023-03-20T02:52:51.782Z,14.40
2023-03-20T02:55:33.921Z,14.90
2023-03-20T02:58:09.309Z,17.02
2023-03-20T03:00:48.574Z,20.15
2023-03-20T03:03:34.352Z,12.93
2023-03-20T03:06:09.073Z,19.00
2023-03-20T03:08:41.359Z,15.18
2023-03-20T03:11:09.811Z,17.02
2023-03-20T03:13:42.146Z,13.80
2023-03-20T03:16:14.530Z,14.00
2023-03-20T03:18:42.949Z,13.70
2023-03-20T03:21:14.125Z,16.27
2023-03-20T03:23:49.138Z,14.18
2023-03-20T03:26:28.293Z,14.85
2023-03-20T03:29:02.679Z,14.60
2023-03-20T03:31:30.923Z,13.73
2023-03-20T03:33:59.784Z,16.75
2023-03-20T03:36:39.903Z,17.05
2023-03-20T03:39:19.487Z,14.48
2023-03-20T03:41:56.542Z,11.50
2023-03-20T03:44:47.071Z,18.42
2023-03-20T03:47:33.433Z,12.80
2023-03-20T03:50:05.663Z,13.02
2023-03-20T03:52:33.489Z,13.88
2023-03-20T03:57:44.635Z,15.63
2023-03-20T04:00:18.144Z,10.85
2023-03-20T04:02:47.493Z,11.50
2023-03-20T04:05:16.192Z,11.95
2023-03-20T04:07:47.343Z,15.55
2023-03-20T04:10:15.456Z,12.43
2023-03-20T04:12:44.388Z,13.82
2023-03-20T04:15:12.824Z,15.45
2023-03-20T04:17:40.297Z,10.15
2023-03-20T04:20:09.915Z,13.45
2023-03-20T04:22:37.312Z,22.33
2023-03-20T04:25:16.291Z,11.85
2023-03-20T04:27:43.600Z,10.25
2023-03-20T04:30:18.985Z,14.48
2023-03-20T04:33:05.191Z,8.93
2023-03-20T04:35:44.432Z,13.90
2023-03-20T04:38:15.940Z,12.50
2023-03-20T04:40:44.920Z,14.27
2023-03-20T04:43:13.149Z,11.18
2023-03-20T04:45:41.504Z,16.50
2023-03-20T04:48:09.965Z,11.43
2023-03-20T04:50:37.669Z,13.27
2023-03-20T04:53:06.660Z,11.63
2023-03-20T04:55:34.633Z,13.38
2023-03-20T04:58:02.046Z,18.35
2023-03-20T05:00:30.205Z,14.07
2023-03-20T05:02:57.430Z,8.45
2023-03-20T05:05:25.698Z,19.33
2023-03-20T05:07:53.674Z,10.73
2023-03-20T05:10:30.696Z,13.95
2023-03-20T05:13:06.252Z,10.77
2023-03-20T05:15:54.030Z,8.52
2023-03-20T05:18:46.540Z,11.40
2023-03-20T05:21:32.457Z,11.40
2023-03-20T05:24:27.492Z,13.38
2023-03-20T05:27:17.949Z,17.17
2023-03-20T05:30:02.977Z,18.58
2023-03-20T05:32:51.026Z,17.35
2023-03-20T05:35:27.602Z,13.40
2023-03-20T05:38:23.484Z,14.48
2023-03-20T05:43:46.484Z,15.32
2023-03-20T05:46:33.304Z,12.85
2023-03-20T05:49:09.719Z,12.10
2023-03-20T05:51:57.022Z,12.23
2023-03-20T05:54:31.756Z,9.55
2023-03-20T05:57:22.333Z,10.50
2023-03-20T05:59:52.750Z,12.45
2023-03-20T06:02:38.965Z,7.75
2023-03-20T06:05:26.159Z,14.93
2023-03-20T06:07:53.952Z,12.23
2023-03-20T06:10:21.138Z,12.63
2023-03-20T06:12:53.611Z,11.90
2023-03-20T06:15:29.194Z,13.02
2023-03-20T06:18:04.425Z,12.05
2023-03-20T06:20:32.202Z,14.63
2023-03-20T06:23:02.680Z,17.63
2023-03-20T06:25:30.585Z,11.65
2023-03-20T06:27:58.294Z,9.85
2023-03-20T06:30:25.727Z,10.55
2023-03-20T06:32:54.432Z,12.05
2023-03-20T06:37:51.908Z,12.43
2023-03-20T06:40:23.549Z,7.43
2023-03-20T06:42:51.208Z,12.05
2023-03-20T06:45:19.640Z,11.15
2023-03-20T06:48:02.314Z,23.27
2023-03-20T06:50:30.766Z,9.38
2023-03-20T06:52:59.626Z,12.57
2023-03-20T06:55:32.899Z,13.20
2023-03-20T06:58:00.769Z,11.07
2023-03-20T07:00:29.773Z,18.98
2023-03-20T07:02:59.424Z,10.07
2023-03-20T07:05:28.647Z,13.10
2023-03-20T07:07:57.189Z,9.05
2023-03-20T07:10:24.628Z,12.20
2023-03-20T07:12:53.587Z,8.82
2023-03-20T07:15:21.221Z,16.70
2023-03-20T07:17:49.633Z,11.57
2023-03-20T07:20:17.186Z,8.10
2023-03-20T07:22:44.547Z,11.35
2023-03-20T07:25:20.562Z,11.95
2023-03-20T07:27:54.740Z,10.98
2023-03-20T07:30:24.594Z,10.48
2023-03-20T07:32:52.564Z,12.75
2023-03-20T07:35:21.175Z,15.80
2023-03-20T07:37:48.589Z,10.38
2023-03-20T07:40:16.217Z,11.70
2023-03-20T07:42:52.807Z,8.50
2023-03-20T07:45:39.033Z,14.73
2023-03-20T07:48:06.852Z,12.77
2023-03-20T07:50:34.270Z,18.98
2023-03-20T07:53:02.280Z,14.45
2023-03-20T07:55:29.537Z,9.95
2023-03-20T07:57:56.822Z,10.75
2023-03-20T08:00:26.104Z,10.77
2023-03-20T08:02:57.058Z,15.88
2023-03-20T08:05:25.035Z,11.05
2023-03-20T08:07:52.934Z,13.00
2023-03-20T08:10:20.502Z,13.25
2023-03-20T08:12:47.734Z,12.00
2023-03-20T08:15:15.298Z,14.38
2023-03-20T08:17:44.629Z,11.10
2023-03-20T08:20:14.465Z,10.93
2023-03-20T08:22:42.814Z,18.20
2023-03-20T08:25:10.824Z,15.15
2023-03-20T08:27:38.804Z,17.67
2023-03-20T08:30:07.149Z,14.43
2023-03-20T08:32:34.514Z,12.57
2023-03-20T08:35:01.848Z,12.82
2023-03-20T08:37:29.224Z,11.98
2023-03-20T08:39:56.455Z,10.30
2023-03-20T08:42:23.972Z,11.60
2023-03-20T08:44:51.346Z,11.63
2023-03-20T08:47:19.724Z,11.77
2023-03-20T08:49:47.228Z,12.35
2023-03-20T08:52:14.735Z,12.23
2023-03-20T08:54:42.417Z,12.63
2023-03-20T08:57:10.364Z,9.75
2023-03-20T08:59:38.011Z,16.23
2023-03-20T09:02:05.958Z,12.40
2023-03-20T09:04:33.451Z,15.27
2023-03-20T09:07:03.074Z,15.25
2023-03-20T09:09:30.943Z,14.77
2023-03-20T09:11:59.356Z,17.98
2023-03-20T09:14:28.670Z,16.83
2023-03-20T09:16:56.371Z,12.18
2023-03-20T09:19:23.741Z,12.00
2023-03-20T09:21:51.224Z,13.10
2023-03-20T09:24:18.616Z,12.85
2023-03-20T09:26:45.952Z,15.00
2023-03-20T09:29:13.353Z,16.83
2023-03-20T09:31:41.153Z,18.45
2023-03-20T09:34:08.838Z,13.38
2023-03-20T09:36:36.584Z,14.10
2023-03-20T09:39:04.749Z,19.83
2023-03-20T09:41:49.247Z,18.55
2023-03-20T09:45:13.544Z,17.58
2023-03-20T09:47:54.768Z,12.32
2023-03-20T09:50:38.715Z,15.60
2023-03-20T09:53:24.939Z,11.73
2023-03-20T09:55:53.906Z,12.05
2023-03-20T09:58:25.775Z,14.25
2023-03-20T10:00:56.196Z,14.30
2023-03-20T10:03:30.004Z,10.20
2023-03-20T10:06:03.585Z,12.43
2023-03-20T10:08:36.931Z,18.60
2023-03-20T10:11:10.237Z,15.50
2023-03-20T10:13:37.409Z,17.40
2023-03-20T10:16:12.724Z,16.15
2023-03-20T10:18:47.104Z,19.58
2023-03-20T10:21:24.178Z,18.00
2023-03-20T10:24:04.643Z,20.00
2023-03-20T10:26:36.246Z,13.05
2023-03-20T10:29:26.203Z,21.33
2023-03-20T10:32:02.826Z,18.10
2023-03-20T10:34:52.225Z,16.33
2023-03-20T10:37:32.686Z,11.87
2023-03-20T10:40:05.774Z,15.52
2023-03-20T10:42:39.619Z,9.60
2023-03-20T10:45:14.883Z,12.02
2023-03-20T10:47:48.536Z,17.45
2023-03-20T10:50:19.041Z,12.48
2023-03-20T10:52:48.605Z,13.48
2023-03-20T10:55:22.725Z,16.88
2023-03-20T10:57:56.685Z,14.18
2023-03-20T11:00:26.374Z,12.35
2023-03-20T11:02:53.681Z,58.55
2023-03-20T11:05:21.062Z,13.43
2023-03-20T11:07:52.844Z,9.65
2023-03-20T11:10:20.568Z,12.00
2023-03-20T11:12:49.209Z,13.35
2023-03-20T11:15:21.816Z,11.95
2023-03-20T11:18:07.291Z,11.23
2023-03-20T11:20:39.701Z,20.98
2023-03-20T11:23:10.754Z,19.77
2023-03-20T11:25:40.034Z,15.73
2023-03-20T11:28:19.677Z,11.93
2023-03-20T11:31:03.849Z,11.13
2023-03-20T11:33:40.338Z,14.55
2023-03-20T11:36:30.299Z,18.77
2023-03-20T11:39:27.932Z,22.13
2023-03-20T11:41:57.024Z,19.33
2023-03-20T11:44:26.741Z,18.20
2023-03-20T11:47:05.700Z,16.75
2023-03-20T11:49:34.974Z,15.35
2023-03-20T11:52:11.443Z,12.20
2023-03-20T11:54:46.604Z,14.10
2023-03-20T11:57:46.206Z,12.25
2023-03-20T12:00:21.489Z,15.35
2023-03-20T12:02:48.982Z,13.10
2023-03-20T12:05:33.133Z,16.48
2023-03-20T12:08:14.142Z,14.82
2023-03-20T12:10:43.697Z,14.55
2023-03-20T12:13:21.635Z,28.92
2023-03-20T12:15:55.820Z,18.20
2023-03-20T12:18:26.969Z,14.77
2023-03-20T12:21:10.294Z,17.33
2023-03-20T12:23:48.209Z,16.23
2023-03-20T12:26:20.504Z,14.65
2023-03-20T12:28:52.540Z,11.35
2023-03-20T12:31:34.277Z,18.80
2023-03-20T12:34:16.480Z,14.73
2023-03-20T12:36:52.954Z,17.83
2023-03-20T12:39:25.327Z,20.17
2023-03-20T12:42:02.317Z,11.73
2023-03-20T12:44:43.469Z,11.77
2023-03-20T12:47:33.284Z,16.02
2023-03-20T12:50:25.489Z,20.33
2023-03-20T12:53:11.749Z,38.95
2023-03-20T12:55:54.866Z,18.98
2023-03-20T12:58:36.634Z,18.60
2023-03-20T13:01:07.372Z,16.08
2023-03-20T13:04:12.549Z,13.82
2023-03-20T13:06:51.994Z,16.17
2023-03-20T13:09:57.300Z,14.97
2023-03-20T13:12:45.964Z,17.08
2023-03-20T13:15:23.919Z,21.08
2023-03-20T13:17:51.786Z,15.20
2023-03-20T13:20:27.014Z,13.77
2023-03-20T13:22:59.264Z,12.70
2023-03-20T13:25:35.848Z,18.95
2023-03-20T13:28:13.569Z,16.15
2023-03-20T13:30:50.339Z,15.07
2023-03-20T13:33:38.753Z,15.63
2023-03-20T13:36:19.140Z,15.02
2023-03-20T13:38:50.283Z,17.90
2023-03-20T13:41:17.697Z,12.98
2023-03-20T13:43:54.222Z,12.63
2023-03-20T13:46:27.961Z,11.30
2023-03-20T13:48:59.145Z,13.07
2023-03-20T13:51:34.438Z,13.32
2023-03-20T13:54:01.808Z,14.20
2023-03-20T13:56:44.797Z,16.38
2023-03-20T13:59:33.621Z,16.05
2023-03-20T14:02:18.839Z,12.10
2023-03-20T14:04:47.665Z,16.50
2023-03-20T14:07:33.957Z,13.90
2023-03-20T14:10:37.420Z,12.85
2023-03-20T14:13:10.136Z,15.30
2023-03-20T14:15:39.111Z,15.32
2023-03-20T14:18:13.441Z,10.65
2023-03-20T14:20:42.595Z,17.52
2023-03-20T14:23:30.066Z,12.25
2023-03-20T14:25:59.280Z,15.88
2023-03-20T14:28:31.549Z,15.27
2023-03-20T14:31:26.430Z,14.57
2023-03-20T14:34:12.184Z,14.10
2023-03-20T14:36:53.086Z,12.45
2023-03-20T14:39:44.530Z,12.82
2023-03-20T14:42:36.127Z,14.40
2023-03-20T14:45:42.457Z,12.10
2023-03-20T14:48:32.671Z,13.93
2023-03-20T14:51:11.856Z,12.60
2023-03-20T14:53:40.813Z,14.40
2023-03-20T14:56:13.647Z,14.73
2023-03-20T14:58:43.707Z,12.40
2023-03-20T15:01:26.153Z,13.30
2023-03-20T15:04:11.131Z,20.35
2023-03-20T15:06:49.985Z,12.18
2023-03-20T15:09:18.127Z,12.75
2023-03-20T15:11:46.640Z,14.07
2023-03-20T15:14:20.580Z,15.45
2023-03-20T15:16:47.967Z,12.82
2023-03-20T15:19:18.567Z,15.48
2023-03-20T15:21:48.031Z,12.32
2023-03-20T15:24:27.202Z,16.05
2023-03-20T15:26:57.986Z,14.98
2023-03-20T15:29:25.795Z,17.25
2023-03-20T15:32:12.476Z,15.73
2023-03-20T15:34:42.500Z,16.60
2023-03-20T15:37:15.359Z,13.73
2023-03-20T15:39:48.536Z,14.55
2023-03-20T15:42:18.315Z,19.60
2023-03-20T15:44:48.304Z,17.73
2023-03-20T15:49:54.828Z,12.55
2023-03-20T15:52:42.633Z,15.43
2023-03-20T15:55:14.760Z,16.83
2023-03-20T15:57:44.952Z,13.18
2023-03-20T16:00:16.902Z,19.85
2023-03-20T16:02:48.277Z,17.90
2023-03-20T16:05:16.587Z,15.77
2023-03-20T16:07:44.184Z,18.42
2023-03-20T16:10:34.315Z,15.45
2023-03-20T16:15:31.655Z,20.25
2023-03-20T16:18:01.952Z,18.98
2023-03-20T16:20:35.486Z,18.50
2023-03-20T16:23:08.561Z,16.05
2023-03-20T16:25:36.983Z,13.98
2023-03-20T16:28:07.415Z,18.20
2023-03-20T16:30:35.632Z,19.13
2023-03-20T16:33:12.943Z,18.17
2023-03-20T16:35:44.171Z,13.75
2023-03-20T16:38:26.012Z,15.98
2023-03-20T16:40:59.897Z,18.75
2023-03-20T16:43:30.945Z,15.00
2023-03-20T16:46:05.696Z,19.95
2023-03-20T16:48:37.493Z,14.93
2023-03-20T16:51:26.377Z,18.80
2023-03-20T16:53:59.172Z,17.73
2023-03-20T16:56:29.771Z,19.20
2023-03-20T16:58:57.397Z,18.17
2023-03-20T17:01:27.646Z,16.85
2023-03-20T17:04:11.915Z,12.85
2023-03-20T17:06:44.736Z,13.90
2023-03-20T17:09:25.850Z,12.40
2023-03-20T17:12:05.984Z,25.23
2023-03-20T17:14:34.381Z,15.60
2023-03-20T17:17:02.301Z,15.35
2023-03-20T17:19:32.407Z,17.75
2023-03-20T17:22:03.515Z,11.95
2023-03-20T17:24:31.034Z,12.73
2023-03-20T17:26:58.891Z,21.83
2023-03-20T17:29:27.117Z,15.82
2023-03-20T17:31:54.709Z,16.75
2023-03-20T17:34:22.468Z,16.17
2023-03-20T17:36:50.814Z,18.50
2023-03-20T17:39:19.818Z,15.88
2023-03-20T17:41:47.792Z,13.43
2023-03-20T17:44:16.224Z,20.58
2023-03-20T17:46:57.181Z,14.95
2023-03-20T17:49:27.530Z,17.17
2023-03-20T17:51:55.582Z,21.65
2023-03-20T17:54:22.859Z,14.95
2023-03-20T17:56:50.523Z,15.68
2023-03-20T17:59:18.420Z,17.77
2023-03-20T18:01:45.870Z,12.90
2023-03-20T18:04:13.212Z,16.15
2023-03-20T18:06:40.599Z,14.15
2023-03-20T18:09:12.664Z,11.57
2023-03-20T18:11:41.907Z,17.48
2023-03-20T18:14:09.238Z,12.70
2023-03-20T18:16:36.581Z,12.02
2023-03-20T18:19:03.835Z,17.60
2023-03-20T18:21:31.203Z,20.10
2023-03-20T18:23:58.438Z,15.65
2023-03-20T18:26:27.466Z,18.63
2023-03-20T18:28:55.623Z,12.73
2023-03-20T18:31:23.335Z,17.67
2023-03-20T18:33:52.883Z,15.43
2023-03-20T18:36:22.273Z,14.20
2023-03-20T18:38:50.731Z,15.13
2023-03-20T18:41:17.992Z,18.30
2023-03-20T18:43:46.654Z,21.23
2023-03-20T18:46:21.032Z,17.67
2023-03-20T18:48:49.703Z,16.92
2023-03-20T18:51:17.011Z,15.45
2023-03-20T18:53:44.558Z,18.30
2023-03-20T18:56:19.248Z,22.77
2023-03-20T18:58:47.498Z,20.75
2023-03-20T19:01:15.968Z,14.00
2023-03-20T19:03:44.689Z,16.30
2023-03-20T19:06:14.807Z,21.95
2023-03-20T19:08:42.516Z,20.30
2023-03-20T19:11:15.419Z,21.13
2023-03-20T19:13:51.115Z,20.25
2023-03-20T19:16:26.251Z,16.27
2023-03-20T19:18:55.467Z,18.80
2023-03-20T19:21:26.329Z,26.30
2023-03-20T19:23:55.314Z,26.08
2023-03-20T19:26:27.156Z,27.38
2023-03-20T19:28:56.180Z,21.83
2023-03-20T19:31:24.852Z,22.88
2023-03-20T19:33:52.456Z,21.60
2023-03-20T19:36:26.877Z,20.83
2023-03-20T19:38:55.106Z,22.17
2023-03-20T19:41:22.425Z,21.55
2023-03-20T19:43:55.579Z,25.42
2023-03-20T19:46:39.733Z,24.70
2023-03-20T19:49:17.961Z,27.02
2023-03-20T19:51:46.184Z,30.77
2023-03-20T19:54:13.509Z,31.83
2023-03-20T19:56:40.845Z,24.77
2023-03-20T19:59:08.440Z,42.03
2023-03-20T20:01:36.514Z,58.17
2023-03-20T20:04:04.126Z,58.00
2023-03-20T20:06:33.004Z,45.55
2023-03-20T20:09:01.559Z,28.33
2023-03-20T20:11:29.338Z,25.85
2023-03-20T20:14:06.732Z,25.92
2023-03-20T20:20:14.229Z,24.02
2023-03-20T20:22:41.945Z,21.73
2023-03-20T20:25:11.146Z,20.42
2023-03-20T20:27:39.090Z,24.48
2023-03-20T20:30:10.383Z,29.63
2023-03-20T20:32:38.774Z,22.23
2023-03-20T20:35:38.815Z,29.40
2023-03-20T20:40:43.844Z,31.80
2023-03-20T20:43:11.498Z,37.17
2023-03-20T20:45:39.126Z,31.48
2023-03-20T20:48:07.322Z,32.17
2023-03-20T20:50:39.143Z,24.27
2023-03-20T20:53:08.187Z,28.52
2023-03-20T20:55:35.551Z,24.40
2023-03-20T20:58:04.058Z,21.15
2023-03-20T21:00:45.768Z,23.15
2023-03-20T21:03:16.274Z,28.55
2023-03-20T21:05:43.613Z,38.53
2023-03-20T21:08:12.047Z,24.60
2023-03-20T21:10:40.061Z,30.25
2023-03-20T21:13:08.393Z,30.77
2023-03-20T21:15:36.546Z,24.10
2023-03-20T21:18:04.129Z,25.17
2023-03-20T21:20:32.143Z,37.30
2023-03-20T21:23:00.479Z,30.30
2023-03-20T21:25:47.101Z,25.00
2023-03-20T21:28:15.226Z,26.15
2023-03-20T21:31:16.202Z,29.23
2023-03-20T21:33:35.765Z,25.00
2023-03-20T21:36:04.222Z,25.00
2023-03-20T21:39:06.847Z,27.95
2023-03-20T21:41:19.876Z,28.90
2023-03-20T21:43:47.626Z,32.25
2023-03-20T21:46:46.749Z,29.38
2023-03-20T21:55:12.951Z,30.10
2023-03-20T22:01:03.218Z,36.53
2023-03-20T22:03:09.935Z,34.92
2023-03-20T22:09:19.769Z,24.50
2023-03-20T22:23:18.316Z,31.73
2023-03-20T22:42:35.306Z,28.90
2023-03-20T22:45:02.862Z,35.65
2023-03-20T22:47:31.336Z,29.58
2023-03-20T22:49:58.939Z,36.70
2023-03-20T22:52:37.902Z,25.08
2023-03-20T22:55:09.823Z,28.75
2023-03-20T22:57:45.521Z,33.25
2023-03-20T23:02:45.959Z,28.55
2023-03-20T23:05:13.864Z,31.25
2023-03-20T23:07:41.201Z,27.90
2023-03-20T23:10:09.921Z,27.08
2023-03-20T23:12:38.172Z,29.63
2023-03-20T23:15:06.558Z,31.52
2023-03-20T23:17:33.844Z,29.08
2023-03-20T23:20:10.785Z,27.17
2023-03-20T23:22:38.491Z,24.77
2023-03-20T23:25:18.292Z,26.85
2023-03-20T23:27:51.387Z,31.55
2023-03-20T23:30:19.855Z,28.05
2023-03-20T23:32:48.254Z,22.37
2023-03-20T23:35:15.565Z,24.60
2023-03-20T23:37:42.815Z,30.55
2023-03-20T23:40:10.761Z,28.13
2023-03-20T23:42:38.116Z,30.13
2023-03-20T23:45:19.155Z,27.52
2023-03-20T23:47:48.329Z,25.95
2023-03-20T23:50:30.079Z,23.25
2023-03-20T23:53:13.055Z,22.60
2023-03-20T23:55:47.073Z,25.75
2023-03-20T23:58:14.790Z,25.15
